Time;durP1;ratioP1;P1;durP2;ratioP2;P2;SDS_P1;SDS_P2;PMS_P1;PMS_P2;Temp;Humidity;BMP_temperature;BMP_pressure;BME280_temperature;BME280_humidity;BME280_pressure;Samples;Min_cycle;Max_cycle;Signal;HPM_P1;HPM_P2
2022/03/26 00:01:29;;;;;;;30.63;18.53;;;;;;;8.15;64.70;101381.38;5056936;28;20201;-84
2022/03/26 00:03:55;;;;;;;20.53;17.63;;;;;;;8.02;65.05;101379.56;5075804;28;20204;-82
2022/03/26 00:06:22;;;;;;;25.20;17.67;;;;;;;8.07;65.15;101376.13;5076463;28;20251;-82
2022/03/26 00:08:49;;;;;;;24.47;18.37;;;;;;;8.08;65.46;101377.84;5074534;28;20651;-82
2022/03/26 00:11:15;;;;;;;26.63;19.70;;;;;;;8.03;65.69;101376.09;5055601;28;20193;-80
2022/03/26 00:13:42;;;;;;;23.30;18.23;;;;;;;8.04;64.78;101383.03;5055796;28;20212;-81
2022/03/26 00:16:08;;;;;;;25.97;17.63;;;;;;;8.03;64.96;101389.97;5056668;28;20339;-83
2022/03/26 00:18:36;;;;;;;25.93;17.33;;;;;;;8.00;65.24;101383.88;5056931;28;20230;-81
2022/03/26 00:21:03;;;;;;;27.07;17.97;;;;;;;8.05;64.64;101388.25;5058028;28;20206;-81
2022/03/26 00:23:29;;;;;;;30.50;17.10;;;;;;;8.08;65.14;101395.19;5057832;28;20566;-83
2022/03/26 00:25:58;;;;;;;25.53;16.90;;;;;;;8.03;65.17;101391.69;5057633;28;20205;-84
2022/03/26 00:28:24;;;;;;;22.17;16.67;;;;;;;8.01;64.68;101399.47;5057458;28;20578;-82
2022/03/26 00:30:51;;;;;;;26.93;16.73;;;;;;;8.04;65.60;101396.03;5057511;28;20205;-83
2022/03/26 00:33:17;;;;;;;23.90;16.87;;;;;;;8.10;64.78;101409.94;5056710;28;20210;-84
2022/03/26 00:35:47;;;;;;;19.53;16.90;;;;;;;8.14;64.73;101424.69;5056833;28;20296;-83
2022/03/26 00:38:14;;;;;;;20.13;16.27;;;;;;;8.13;65.09;101427.31;5056785;28;20232;-85
2022/03/26 00:40:41;;;;;;;22.30;16.97;;;;;;;8.10;64.50;101433.34;5069986;28;20606;-83
2022/03/26 00:43:08;;;;;;;20.57;16.33;;;;;;;7.96;65.57;101419.38;5072910;28;20214;-81
2022/03/26 00:45:35;;;;;;;22.97;16.57;;;;;;;7.89;65.33;101408.06;5077979;28;20338;-82
2022/03/26 00:48:02;;;;;;;19.80;16.57;;;;;;;7.86;65.99;101399.38;5077706;28;20207;-83
2022/03/26 00:50:29;;;;;;;27.00;15.93;;;;;;;7.80;66.15;101400.19;5077517;28;20231;-80
2022/03/26 00:52:56;;;;;;;25.57;16.60;;;;;;;7.74;66.19;101395.81;5077911;28;20197;-80
2022/03/26 00:55:23;;;;;;;31.23;16.47;;;;;;;7.71;65.97;101395.78;5077246;28;20205;-80
2022/03/26 00:57:49;;;;;;;25.03;17.77;;;;;;;7.69;66.52;101387.13;5078181;28;20733;-82
2022/03/26 01:00:16;;;;;;;25.60;16.50;;;;;;;7.81;65.61;101391.53;5076779;28;20233;-81
2022/03/26 01:02:42;;;;;;;26.63;17.00;;;;;;;7.75;66.30;101392.34;5077843;28;20219;-82
2022/03/26 01:05:10;;;;;;;19.63;16.73;;;;;;;7.65;67.06;101377.56;5077158;28;20208;-81
2022/03/26 01:07:37;;;;;;;20.57;16.03;;;;;;;7.61;66.78;101378.38;5076653;28;20201;-80
2022/03/26 01:10:07;;;;;;;27.70;15.67;;;;;;;7.67;66.62;101386.22;5076895;28;20831;-81
2022/03/26 01:12:34;;;;;;;21.37;15.77;;;;;;;7.66;66.66;101386.22;5069039;28;20685;-82
2022/03/26 01:15:00;;;;;;;26.47;17.80;;;;;;;7.65;66.54;101390.53;5077385;28;20258;-81
2022/03/26 01:17:27;;;;;;;21.53;16.53;;;;;;;7.62;66.34;101384.44;5077220;28;20197;-81
2022/03/26 01:19:54;;;;;;;19.77;15.10;;;;;;;7.62;66.32;101393.09;5075388;28;20228;-82
2022/03/26 01:22:21;;;;;;;21.23;15.60;;;;;;;7.63;66.18;101397.47;5077634;28;20238;-81
2022/03/26 01:24:47;;;;;;;22.87;16.03;;;;;;;7.68;65.74;101403.53;5075590;28;20212;-83
2022/03/26 01:27:15;;;;;;;17.90;15.23;;;;;;;7.78;65.50;101414.91;5078091;28;20838;-82
2022/03/26 01:29:41;;;;;;;18.93;16.03;;;;;;;7.74;66.07;101410.53;5077614;28;20216;-83
2022/03/26 01:32:09;;;;;;;25.73;15.57;;;;;;;7.74;65.16;101420.94;5078129;28;20234;-83
2022/03/26 01:34:37;;;;;;;22.27;16.27;;;;;;;7.75;65.83;101417.47;5076377;28;20583;-82
2022/03/26 01:37:04;;;;;;;23.40;15.77;;;;;;;7.64;65.68;101409.56;5075718;28;20236;-84
2022/03/26 01:39:31;;;;;;;26.70;15.70;;;;;;;7.67;65.41;101409.63;5068216;28;20386;-79
2022/03/26 01:42:02;;;;;;;25.00;16.30;;;;;;;7.71;66.18;101405.28;5063742;28;20255;-84
2022/03/26 01:44:29;;;;;;;18.80;15.97;;;;;;;7.71;65.53;101413.09;5055090;28;20205;-84
2022/03/26 01:46:56;;;;;;;21.43;15.60;;;;;;;7.70;66.13;101416.56;5054748;28;20206;-83
2022/03/26 01:49:24;;;;;;;20.93;15.73;;;;;;;7.58;66.42;101409.53;5055782;28;20276;-82
2022/03/26 01:51:51;;;;;;;22.00;15.27;;;;;;;7.43;67.32;101391.19;5055012;28;20213;-84
2022/03/26 01:54:18;;;;;;;22.00;15.70;;;;;;;7.35;66.50;101371.22;5054413;28;20206;-83
2022/03/26 01:56:44;;;;;;;19.03;15.17;;;;;;;7.40;67.00;101363.47;5054748;28;20233;-84
2022/03/26 01:59:11;;;;;;;17.90;13.80;;;;;;;7.51;66.13;101376.53;5054753;28;20225;-82
2022/03/26 02:01:39;;;;;;;19.27;14.40;;;;;;;7.72;65.59;101394.91;5054424;28;20213;-85
2022/03/26 02:04:08;;;;;;;22.80;15.57;;;;;;;7.70;65.77;101404.44;5053628;28;20673;-85
2022/03/26 02:06:37;;;;;;;22.73;15.23;;;;;;;7.77;64.90;101413.16;5054854;28;20215;-85
2022/03/26 02:09:04;;;;;;;17.30;15.47;;;;;;;7.64;66.08;101416.50;5054587;28;20226;-85
2022/03/26 02:11:32;;;;;;;18.73;15.60;;;;;;;7.55;66.21;101404.28;5062942;28;20620;-84
2022/03/26 02:13:58;;;;;;;22.57;15.97;;;;;;;7.59;66.13;101390.50;5054589;28;20212;-85
2022/03/26 02:16:26;;;;;;;19.37;15.73;;;;;;;7.55;66.25;101396.50;5054241;28;20209;-84
2022/03/26 02:18:54;;;;;;;31.07;16.27;;;;;;;7.48;66.92;101392.13;5055442;28;20792;-85
2022/03/26 02:21:23;;;;;;;30.00;16.83;;;;;;;7.54;66.06;101400.81;5058896;28;20205;-84
2022/03/26 02:23:51;;;;;;;21.67;15.13;;;;;;;7.62;65.64;101398.31;5058669;28;20217;-86
2022/03/26 02:26:18;;;;;;;21.83;16.13;;;;;;;7.57;65.63;101405.16;5059114;28;20260;-84
2022/03/26 02:28:45;;;;;;;26.63;17.20;;;;;;;7.47;65.85;101399.06;5059932;28;20236;-85
2022/03/26 02:31:12;;;;;;;23.37;16.83;;;;;;;7.40;66.59;101397.25;5059662;28;20206;-81
2022/03/26 02:33:39;;;;;;;23.30;15.83;;;;;;;7.39;66.45;101397.22;5059662;28;20255;-85
2022/03/26 02:36:06;;;;;;;25.40;17.70;;;;;;;7.38;66.30;101393.75;5059972;28;20205;-81
2022/03/26 02:38:34;;;;;;;18.30;15.27;;;;;;;7.29;66.52;101378.06;5059765;28;20237;-81
2022/03/26 02:41:00;;;;;;;22.30;17.27;;;;;;;7.33;66.90;101388.53;5079167;28;20213;-83
2022/03/26 02:43:28;;;;;;;25.63;16.47;;;;;;;7.33;66.44;101390.22;5080554;28;20258;-82
2022/03/26 02:45:54;;;;;;;19.40;15.10;;;;;;;7.36;65.98;101392.88;5079632;28;20204;-84
2022/03/26 02:48:21;;;;;;;21.73;16.17;;;;;;;7.29;66.92;101391.91;5079761;28;20263;-80
2022/03/26 02:50:47;;;;;;;23.27;16.60;;;;;;;7.31;66.68;101398.03;5079530;28;20215;-80
2022/03/26 02:53:14;;;;;;;23.40;16.60;;;;;;;7.21;67.59;101395.31;5079361;28;20258;-81
2022/03/26 02:55:42;;;;;;;24.87;16.87;;;;;;;7.05;67.38;101371.78;5079485;28;20266;-81
2022/03/26 02:58:09;;;;;;;21.87;16.57;;;;;;;7.08;67.40;101373.56;5080151;28;20208;-81
2022/03/26 03:00:36;;;;;;;18.83;16.17;;;;;;;6.92;68.07;101360.41;5080117;28;20224;-80
2022/03/26 03:03:03;;;;;;;23.03;18.10;;;;;;;6.88;68.50;101357.78;5080106;28;20204;-82
2022/03/26 03:05:29;;;;;;;33.20;20.07;;;;;;;6.73;68.36;101354.13;5079305;28;20474;-86
2022/03/26 03:07:56;;;;;;;27.47;18.40;;;;;;;6.56;69.77;101338.38;5081596;28;20235;-85
2022/03/26 03:10:23;;;;;;;27.83;18.20;;;;;;;6.36;69.88;101329.47;5066848;28;20696;-85
2022/03/26 03:12:50;;;;;;;35.37;20.83;;;;;;;6.18;70.89;101311.09;5061450;28;20205;-83
2022/03/26 03:15:17;;;;;;;28.93;19.47;;;;;;;5.93;71.88;101285.69;5060310;28;20206;-81
2022/03/26 03:17:45;;;;;;;29.80;19.33;;;;;;;5.69;72.33;101255.13;5061578;28;20205;-82
2022/03/26 03:20:12;;;;;;;36.60;20.87;;;;;;;5.72;73.23;101218.88;5061924;28;20229;-82
2022/03/26 03:22:40;;;;;;;29.87;21.07;;;;;;;5.64;74.03;101214.47;5062486;28;20204;-83
2022/03/26 03:25:08;;;;;;;29.83;21.23;;;;;;;5.75;73.80;101193.03;5061546;28;20905;-81
2022/03/26 03:27:35;;;;;;;39.50;23.47;;;;;;;5.76;74.04;101202.53;5061803;28;20214;-83
2022/03/26 03:30:03;;;;;;;38.27;23.90;;;;;;;5.75;73.96;101200.81;5061021;28;20226;-82
2022/03/26 03:32:30;;;;;;;37.27;23.80;;;;;;;5.77;74.07;101204.28;5062084;28;20202;-84
2022/03/26 03:34:57;;;;;;;33.27;21.87;;;;;;;5.67;74.51;101191.19;5061359;28;20205;-81
2022/03/26 03:37:24;;;;;;;34.90;23.40;;;;;;;5.49;75.48;101177.16;5061583;28;20277;-83
2022/03/26 03:39:51;;;;;;;37.77;24.07;;;;;;;5.44;75.60;101158.09;5071263;28;20243;-83
2022/03/26 03:42:17;;;;;;;39.93;24.43;;;;;;;5.50;76.04;101150.41;5081208;28;20197;-81
2022/03/26 03:44:44;;;;;;;32.53;22.67;;;;;;;5.47;75.81;101152.06;5081484;28;20261;-82
2022/03/26 03:47:11;;;;;;;42.33;23.80;;;;;;;5.48;76.45;101149.50;5080907;28;20262;-82
2022/03/26 03:49:38;;;;;;;39.43;22.23;;;;;;;5.56;75.53;101147.03;5081142;28;20290;-81
2022/03/26 03:52:05;;;;;;;32.40;22.97;;;;;;;5.63;75.40;101156.63;5080700;28;20209;-84
2022/03/26 03:54:32;;;;;;;37.27;24.13;;;;;;;5.69;74.85;101164.47;5080104;28;20273;-83
2022/03/26 03:56:58;;;;;;;35.20;23.77;;;;;;;5.62;75.35;101166.97;5081424;28;20627;-82
2022/03/26 03:59:24;;;;;;;40.40;23.77;;;;;;;5.60;75.49;101169.53;5080124;28;20251;-84
2022/03/26 04:01:51;;;;;;;34.87;23.33;;;;;;;5.58;75.37;101161.72;5080626;28;20197;-82
2022/03/26 04:04:19;;;;;;;42.30;24.33;;;;;;;5.57;75.48;101167.78;5079026;28;20204;-81
2022/03/26 04:06:45;;;;;;;35.93;22.10;;;;;;;5.69;75.11;101166.16;5080022;28;20285;-81
2022/03/26 04:09:11;;;;;;;41.57;24.23;;;;;;;5.62;75.25;101162.63;5079649;28;20240;-81
2022/03/26 04:11:38;;;;;;;32.70;22.90;;;;;;;5.51;75.80;101164.22;5071604;28;20208;-82
2022/03/26 04:14:06;;;;;;;44.13;23.00;;;;;;;5.53;75.82;101147.88;5081226;28;20241;-84
2022/03/26 04:16:32;;;;;;;38.87;22.90;;;;;;;5.62;75.51;101162.63;5081642;28;20205;-81
2022/03/26 04:18:59;;;;;;;36.67;21.37;;;;;;;5.67;75.20;101168.75;5080581;28;20231;-83
2022/03/26 04:21:26;;;;;;;40.23;22.37;;;;;;;5.62;75.37;101165.22;5080481;28;20270;-82
2022/03/26 04:23:53;;;;;;;34.47;21.13;;;;;;;5.66;75.36;101166.16;5079770;28;20456;-81
2022/03/26 04:26:19;;;;;;;48.97;23.23;;;;;;;5.63;75.18;101156.63;5079619;28;20213;-84
2022/03/26 04:28:46;;;;;;;39.87;23.37;;;;;;;5.74;74.73;101175.75;5079651;28;20288;-84
2022/03/26 04:31:12;;;;;;;42.50;22.63;;;;;;;5.77;74.68;101182.69;5081316;28;20645;-82
2022/03/26 04:33:39;;;;;;;44.27;25.47;;;;;;;5.83;73.96;101193.13;5080052;28;20230;-82
2022/03/26 04:36:05;;;;;;;36.47;22.37;;;;;;;5.95;73.70;101219.22;5081268;28;20208;-84
2022/03/26 04:38:33;;;;;;;44.43;23.87;;;;;;;6.01;72.85;101233.13;5080921;28;20228;-83
2022/03/26 04:40:59;;;;;;;50.33;24.07;;;;;;;6.14;72.46;101243.66;5066692;28;20251;-84
2022/03/26 04:43:26;;;;;;;45.23;24.93;;;;;;;6.28;71.84;101271.47;5061527;28;20601;-85
2022/03/26 04:45:52;;;;;;;40.60;24.07;;;;;;;6.34;71.33;101287.09;5059225;28;20335;-81
2022/03/26 04:48:19;;;;;;;35.37;23.17;;;;;;;6.23;72.13;101286.09;5058897;28;20212;-82
2022/03/26 04:50:45;;;;;;;41.93;24.37;;;;;;;6.18;72.13;101282.56;5057614;28;20209;-84
2022/03/26 04:53:13;;;;;;;45.50;23.67;;;;;;;6.01;72.47;101267.69;5058615;28;20204;-84
2022/03/26 04:55:41;;;;;;;59.17;26.00;;;;;;;5.99;72.36;101253.84;5057629;28;20237;-84
2022/03/26 04:58:08;;;;;;;40.57;23.57;;;;;;;6.01;72.96;101266.81;5058952;28;20217;-82
2022/03/26 05:00:34;;;;;;;59.83;27.30;;;;;;;6.10;72.29;101272.09;5059024;28;20292;-83
2022/03/26 05:03:01;;;;;;;58.83;27.30;;;;;;;6.24;71.54;101282.66;5058693;28;20227;-84
2022/03/26 05:05:27;;;;;;;59.83;26.47;;;;;;;6.30;71.37;101312.13;5057674;28;20553;-82
2022/03/26 05:07:55;;;;;;;54.67;26.50;;;;;;;6.39;70.79;101319.13;5058462;28;20198;-83
2022/03/26 05:10:24;;;;;;;54.07;27.60;;;;;;;6.38;70.13;101340.72;5066632;28;20218;-83
2022/03/26 05:12:52;;;;;;;55.00;28.50;;;;;;;6.49;69.86;101351.25;5058514;28;20235;-83
2022/03/26 05:15:22;;;;;;;61.13;28.23;;;;;;;6.51;70.22;101363.38;5057662;28;20205;-82
2022/03/26 05:17:49;;;;;;;49.30;25.93;;;;;;;6.48;69.83;101378.03;5058306;28;20205;-84
2022/03/26 05:20:16;;;;;;;55.40;27.13;;;;;;;6.51;69.90;101383.25;5058406;28;20241;-86
2022/03/26 05:22:45;;;;;;;57.43;27.57;;;;;;;6.52;70.39;101385.88;5059038;28;20335;-81
2022/03/26 05:25:12;;;;;;;53.77;26.73;;;;;;;6.27;70.41;101389.00;5058119;28;20305;-82
2022/03/26 05:27:43;;;;;;;37.33;23.70;;;;;;;5.94;69.95;101391.06;5058786;28;20214;-81
2022/03/26 05:30:12;;;;;;;36.77;22.13;;;;;;;5.51;70.48;101395.56;5058568;28;20244;-82
2022/03/26 05:32:38;;;;;;;43.10;23.13;;;;;;;5.06;73.19;101354.19;5059756;28;20686;-83
2022/03/26 05:35:11;;;;;;;37.70;23.80;;;;;;;4.76;74.78;101306.22;5058419;28;20585;-84
2022/03/26 05:37:37;;;;;;;40.77;23.20;;;;;;;4.43;76.79;101257.31;5059112;28;20212;-83
2022/03/26 05:40:05;;;;;;;40.23;23.50;;;;;;;4.42;77.86;101216.78;5071744;28;20285;-83
2022/03/26 05:42:32;;;;;;;38.90;23.57;;;;;;;4.37;78.58;101196.03;5069435;28;20201;-83
2022/03/26 05:44:59;;;;;;;42.20;22.93;;;;;;;4.38;79.10;101170.22;5060138;28;20220;-84
2022/03/26 05:47:27;;;;;;;39.73;22.83;;;;;;;4.32;79.79;101154.59;5062554;28;20238;-84
2022/03/26 05:49:53;;;;;;;42.60;24.23;;;;;;;4.29;80.62;101141.63;5063001;28;20764;-82
2022/03/26 05:52:19;;;;;;;47.73;25.70;;;;;;;4.27;80.79;101132.97;5062101;28;20214;-84
2022/03/26 05:54:46;;;;;;;37.10;24.07;;;;;;;4.31;80.92;101127.00;5064463;28;20207;-82
2022/03/26 05:57:13;;;;;;;36.53;23.00;;;;;;;4.35;81.21;101130.53;5066492;28;20231;-83
2022/03/26 05:59:39;;;;;;;39.60;23.80;;;;;;;4.36;81.17;101138.31;5065637;28;20236;-83
2022/03/26 06:02:06;;;;;;;47.47;25.57;;;;;;;4.34;81.61;101142.56;5065882;28;20225;-82
2022/03/26 06:04:34;;;;;;;40.30;23.17;;;;;;;4.33;81.54;101148.56;5065250;28;20230;-81
2022/03/26 06:07:00;;;;;;;37.80;23.73;;;;;;;4.24;82.24;101139.78;5065145;28;20214;-83
2022/03/26 06:09:27;;;;;;;47.03;26.00;;;;;;;4.13;82.75;101145.63;5067646;28;20779;-84
2022/03/26 06:11:53;;;;;;;38.40;24.10;;;;;;;4.06;83.10;101140.31;5078919;28;20202;-83
2022/03/26 06:14:20;;;;;;;46.13;24.93;;;;;;;4.03;82.78;101135.97;5062103;28;20208;-85
2022/03/26 06:16:46;;;;;;;40.90;24.33;;;;;;;4.11;83.11;101141.28;5062129;28;20215;-85
2022/03/26 06:19:13;;;;;;;47.00;25.13;;;;;;;4.39;82.43;101153.00;5059739;28;20268;-85
2022/03/26 06:21:41;;;;;;;43.13;24.20;;;;;;;4.60;81.80;101180.94;5060879;28;20642;-84
2022/03/26 06:24:08;;;;;;;49.10;26.13;;;;;;;4.89;80.30;101206.41;5060298;28;20241;-84
2022/03/26 06:26:36;;;;;;;44.10;23.73;;;;;;;5.21;78.79;101252.66;5060084;28;20241;-84
2022/03/26 06:29:02;;;;;;;46.87;24.53;;;;;;;5.28;77.63;101293.31;5060168;28;20233;-84
2022/03/26 06:31:29;;;;;;;41.57;25.53;;;;;;;5.41;77.52;101325.44;5059919;28;20201;-83
2022/03/26 06:33:55;;;;;;;37.70;25.20;;;;;;;5.46;77.26;101337.63;5058674;28;20215;-84
2022/03/26 06:36:22;;;;;;;46.80;24.53;;;;;;;5.53;76.76;101359.31;5058637;28;20262;-84
2022/03/26 06:38:50;;;;;;;43.53;24.23;;;;;;;5.63;76.16;101362.91;5058963;28;20233;-84
2022/03/26 06:41:16;;;;;;;42.63;24.97;;;;;;;5.65;76.12;101377.66;5067884;28;20213;-83
2022/03/26 06:43:44;;;;;;;34.43;24.27;;;;;;;5.76;75.51;101393.38;5077666;28;20203;-81
2022/03/26 06:46:10;;;;;;;38.87;23.87;;;;;;;5.75;75.78;101399.41;5076715;28;20575;-82
2022/03/26 06:48:37;;;;;;;38.20;23.30;;;;;;;5.75;75.68;101400.28;5076991;28;20228;-80
2022/03/26 06:51:06;;;;;;;43.17;25.63;;;;;;;5.77;76.24;101393.41;5076790;28;20200;-82
2022/03/26 06:53:33;;;;;;;45.40;25.07;;;;;;;5.86;75.44;101403.03;5077390;28;20207;-79
2022/03/26 06:56:01;;;;;;;38.70;24.90;;;;;;;5.88;75.57;101403.06;5077268;28;20211;-82
2022/03/26 06:58:28;;;;;;;41.00;24.43;;;;;;;5.94;76.49;101403.16;5077022;28;20236;-82
2022/03/26 07:00:55;;;;;;;43.63;25.43;;;;;;;5.91;76.09;101396.22;5077046;28;20225;-81
2022/03/26 07:03:21;;;;;;;51.40;24.67;;;;;;;6.08;75.29;101426.72;5075831;28;20212;-81
2022/03/26 07:05:48;;;;;;;42.50;25.33;;;;;;;6.19;75.07;101429.50;5075256;28;20227;-82
2022/03/26 07:08:14;;;;;;;41.60;24.50;;;;;;;6.24;75.08;101438.19;5076217;28;20754;-81
2022/03/26 07:10:45;;;;;;;42.83;24.57;;;;;;;6.28;75.58;101424.44;5072353;28;20193;-81
2022/03/26 07:13:12;;;;;;;39.53;25.00;;;;;;;6.30;75.87;101426.22;5057105;28;20193;-82
2022/03/26 07:15:39;;;;;;;45.33;25.67;;;;;;;6.34;76.77;101409.84;5056457;28;20201;-80
2022/03/26 07:18:05;;;;;;;37.67;24.03;;;;;;;6.40;77.26;101390.03;5056401;28;20232;-81
2022/03/26 07:20:32;;;;;;;48.47;25.23;;;;;;;6.41;77.21;101384.88;5056029;28;20704;-81
2022/03/26 07:22:58;;;;;;;47.27;24.90;;;;;;;6.50;77.85;101373.72;5056306;28;20296;-81
2022/03/26 07:25:25;;;;;;;42.90;26.13;;;;;;;6.59;77.95;101371.25;5055968;28;20205;-81
2022/03/26 07:27:51;;;;;;;46.27;25.77;;;;;;;6.68;79.27;101337.66;5055936;28;20604;-82
2022/03/26 07:30:20;;;;;;;44.17;25.20;;;;;;;6.80;80.53;101315.28;5055745;28;20225;-81
2022/03/26 07:32:46;;;;;;;47.50;26.20;;;;;;;6.90;81.18;101291.19;5056055;28;20215;-82
2022/03/26 07:35:13;;;;;;;43.60;26.43;;;;;;;6.99;80.37;101303.38;5054871;28;20243;-82
2022/03/26 07:37:39;;;;;;;43.33;26.77;;;;;;;7.09;78.65;101344.13;5055368;28;20211;-81
2022/03/26 07:40:07;;;;;;;42.10;25.73;;;;;;;7.23;77.92;101365.03;5068147;28;20247;-83
2022/03/26 07:42:34;;;;;;;51.23;26.47;;;;;;;7.33;78.32;101382.44;5065234;28;20217;-84
2022/03/26 07:45:00;;;;;;;44.67;26.13;;;;;;;7.42;77.99;101366.94;5055222;28;20211;-83
2022/03/26 07:47:28;;;;;;;43.03;25.17;;;;;;;7.56;77.01;101391.31;5058901;28;20214;-82
2022/03/26 07:49:55;;;;;;;41.77;24.73;;;;;;;7.67;75.23;101432.13;5058634;28;20213;-84
2022/03/26 07:52:22;;;;;;;35.93;25.17;;;;;;;7.78;76.62;101440.88;5062894;28;20205;-83
2022/03/26 07:54:48;;;;;;;43.40;26.57;;;;;;;7.92;75.49;101448.81;5064373;28;20379;-84
2022/03/26 07:57:15;;;;;;;45.17;26.00;;;;;;;8.06;74.35;101473.19;5063720;28;20203;-84
2022/03/26 07:59:41;;;;;;;44.80;26.47;;;;;;;8.19;74.49;101484.56;5068337;28;20221;-83
2022/03/26 08:02:07;;;;;;;42.20;25.83;;;;;;;8.31;73.44;101508.06;5062665;28;20217;-81
2022/03/26 08:04:35;;;;;;;49.87;26.53;;;;;;;8.48;72.98;101507.34;5062546;28;20198;-83
2022/03/26 08:07:02;;;;;;;41.10;25.77;;;;;;;8.57;72.47;101537.78;5073800;28;20217;-81
2022/03/26 08:09:28;;;;;;;38.40;24.77;;;;;;;8.73;72.00;101558.69;5069109;28;20225;-83
2022/03/26 08:11:55;;;;;;;38.60;24.90;;;;;;;8.91;72.34;101565.75;5065221;28;20750;-83
2022/03/26 08:14:21;;;;;;;40.00;24.97;;;;;;;9.04;69.43;101613.59;5054792;28;20672;-83
2022/03/26 08:16:47;;;;;;;38.30;22.93;;;;;;;9.20;69.17;101651.03;5064571;28;20604;-81
2022/03/26 08:19:14;;;;;;;38.70;23.43;;;;;;;9.33;68.72;101664.97;5069728;28;20224;-81
2022/03/26 08:21:41;;;;;;;34.17;23.27;;;;;;;9.51;68.41;101674.63;5067470;28;20220;-80
2022/03/26 08:24:08;;;;;;;30.73;22.13;;;;;;;9.59;67.57;101688.56;5064681;28;20601;-80
2022/03/26 08:26:34;;;;;;;35.20;22.93;;;;;;;9.66;67.93;101720.78;5065107;28;20201;-80
2022/03/26 08:29:01;;;;;;;31.80;22.50;;;;;;;9.70;67.40;101722.53;5065204;28;20840;-81
2022/03/26 08:31:31;;;;;;;29.17;21.53;;;;;;;9.82;67.71;101717.38;5062794;28;20204;-80
2022/03/26 08:33:57;;;;;;;35.47;23.00;;;;;;;9.91;66.55;101740.91;5068421;28;20288;-82
2022/03/26 08:36:24;;;;;;;43.40;24.47;;;;;;;10.02;67.13;101745.31;5063496;28;20201;-83
2022/03/26 08:38:53;;;;;;;32.00;23.90;;;;;;;10.08;66.39;101753.16;5068399;28;20255;-83
2022/03/26 08:41:22;;;;;;;34.83;24.03;;;;;;;10.04;65.71;101762.69;5062017;28;20224;-82
2022/03/26 08:43:50;;;;;;;34.27;23.37;;;;;;;10.14;66.78;101768.81;5066117;28;20196;-81
2022/03/26 08:46:16;;;;;;;35.37;24.13;;;;;;;10.24;66.71;101775.81;5075905;28;20211;-79
2022/03/26 08:48:43;;;;;;;41.60;23.50;;;;;;;10.32;67.06;101770.66;5075597;28;20228;-79
2022/03/26 08:51:09;;;;;;;36.80;23.77;;;;;;;10.47;66.68;101751.59;5075384;28;20220;-80
2022/03/26 08:53:35;;;;;;;35.47;23.93;;;;;;;10.53;66.51;101765.50;5075387;28;20239;-81
2022/03/26 08:56:04;;;;;;;31.57;22.57;;;;;;;10.61;66.42;101778.59;5075333;28;20625;-80
2022/03/26 08:58:31;;;;;;;34.43;22.03;;;;;;;10.72;66.21;101786.44;5076131;28;20225;-80
2022/03/26 09:00:57;;;;;;;33.03;22.73;;;;;;;10.75;66.41;101788.22;5075300;28;20201;-79
2022/03/26 09:03:24;;;;;;;36.63;23.70;;;;;;;10.76;65.44;101803.84;5075758;28;20262;-79
2022/03/26 09:05:52;;;;;;;32.30;22.93;;;;;;;10.83;65.66;101805.63;5073683;28;20208;-80
2022/03/26 09:08:19;;;;;;;31.37;21.43;;;;;;;10.96;65.95;101793.47;5065201;28;20198;-80
2022/03/26 09:10:46;;;;;;;36.97;23.73;;;;;;;11.11;66.11;101776.91;5065880;28;20205;-81
2022/03/26 09:13:15;;;;;;;33.40;23.33;;;;;;;11.20;65.50;101787.38;5060297;28;20250;-80
2022/03/26 09:15:41;;;;;;;31.60;21.80;;;;;;;11.32;65.27;101807.44;5062848;28;20264;-81
2022/03/26 09:18:08;;;;;;;29.93;20.67;;;;;;;11.41;62.96;101864.06;5063904;28;20265;-82
2022/03/26 09:20:34;;;;;;;27.13;19.73;;;;;;;11.55;61.54;101903.28;5065306;28;20197;-80
2022/03/26 09:23:01;;;;;;;26.20;19.63;;;;;;;11.68;60.30;101952.13;5063445;28;20244;-82
2022/03/26 09:25:29;;;;;;;20.43;15.97;;;;;;;11.77;59.11;101993.13;5069305;28;20201;-82
2022/03/26 09:27:55;;;;;;;18.70;15.03;;;;;;;11.81;57.96;102034.97;5069190;28;20204;-81
2022/03/26 09:30:23;;;;;;;19.83;16.83;;;;;;;11.79;58.41;102049.78;5069839;28;20248;-82
2022/03/26 09:32:50;;;;;;;18.30;16.40;;;;;;;11.81;57.81;102042.81;5068106;28;20246;-82
2022/03/26 09:35:16;;;;;;;17.80;15.93;;;;;;;11.88;57.41;102049.81;5069192;28;20236;-82
2022/03/26 09:37:44;;;;;;;22.23;16.73;;;;;;;12.00;57.24;102067.31;5066498;28;20254;-82
2022/03/26 09:40:12;;;;;;;17.83;16.17;;;;;;;12.08;57.02;102068.19;5070534;28;20718;-82
2022/03/26 09:42:40;;;;;;;18.80;16.87;;;;;;;12.23;57.55;102066.47;5070019;28;20217;-81
2022/03/26 09:45:08;;;;;;;20.17;16.13;;;;;;;12.20;56.62;102066.47;5067927;28;20199;-81
2022/03/26 09:47:36;;;;;;;22.00;16.73;;;;;;;12.23;57.01;102075.22;5064898;28;20231;-82
2022/03/26 09:50:06;;;;;;;20.17;18.00;;;;;;;12.24;57.47;102056.00;5069843;28;20595;-82
2022/03/26 09:52:34;;;;;;;20.63;18.27;;;;;;;12.29;57.04;102048.16;5080202;28;20283;-79
2022/03/26 09:55:00;;;;;;;22.60;19.63;;;;;;;12.35;57.82;102058.63;5090500;28;20255;-79
2022/03/26 09:57:26;;;;;;;23.23;18.17;;;;;;;12.41;57.86;102044.66;5095372;28;20201;-81
2022/03/26 09:59:53;;;;;;;25.17;19.40;;;;;;;12.49;58.14;102014.97;5083831;28;20221;-81
2022/03/26 10:02:20;;;;;;;30.67;21.03;;;;;;;12.60;58.67;102014.94;5085768;28;20230;-82
2022/03/26 10:04:48;;;;;;;25.10;19.83;;;;;;;12.60;57.89;102024.53;5087834;28;20270;-81
2022/03/26 10:07:14;;;;;;;26.87;20.53;;;;;;;12.58;58.24;102026.28;5079116;28;20207;-82
2022/03/26 10:09:42;;;;;;;28.27;20.27;;;;;;;12.62;58.48;102014.94;5081247;28;20276;-82
2022/03/26 10:12:11;;;;;;;26.53;19.97;;;;;;;12.69;58.01;102016.69;5088078;28;20729;-80
2022/03/26 10:14:39;;;;;;;23.97;19.50;;;;;;;12.78;58.63;102014.00;5087663;28;20206;-80
2022/03/26 10:17:14;;;;;;;22.07;19.33;;;;;;;12.77;57.87;102019.28;5079599;28;20586;-81
2022/03/26 10:19:45;;;;;;;20.33;18.33;;;;;;;12.87;58.49;102002.66;5078872;28;20229;-81
2022/03/26 10:22:32;;;;;;;19.37;17.10;;;;;;;12.88;57.46;102023.63;5078798;28;20380;-81
2022/03/26 10:25:00;;;;;;;22.97;17.53;;;;;;;13.03;58.03;102022.69;5079776;28;20203;-81
2022/03/26 10:27:27;;;;;;;20.43;17.20;;;;;;;13.12;57.14;102027.00;5079435;28;20733;-81
2022/03/26 10:29:55;;;;;;;18.73;16.93;;;;;;;13.18;56.31;102039.22;5079022;28;20227;-81
2022/03/26 10:32:45;;;;;;;18.90;16.97;;;;;;;13.19;56.38;102049.72;5078620;28;20238;-81
2022/03/26 10:35:14;;;;;;;21.77;17.37;;;;;;;13.19;56.58;102057.56;5078637;28;20204;-81
2022/03/26 10:37:53;;;;;;;18.03;16.13;;;;;;;13.26;56.82;102050.53;5077954;28;20259;-81
2022/03/26 10:40:24;;;;;;;21.27;17.63;;;;;;;13.29;56.11;102056.69;5061003;28;20262;-80
2022/03/26 10:42:55;;;;;;;21.13;18.30;;;;;;;13.35;56.66;102052.31;5058205;28;20230;-81
2022/03/26 10:45:22;;;;;;;17.87;15.77;;;;;;;13.37;55.53;102061.91;5058201;28;20203;-81
2022/03/26 10:47:52;;;;;;;16.13;14.73;;;;;;;13.36;56.29;102068.03;5058006;28;20208;-81
2022/03/26 10:50:19;;;;;;;17.73;15.83;;;;;;;13.43;56.17;102074.13;5058008;28;20258;-81
2022/03/26 10:52:45;;;;;;;16.93;15.30;;;;;;;13.55;56.38;102068.81;5058044;28;20250;-81
2022/03/26 10:55:16;;;;;;;20.90;17.13;;;;;;;13.60;55.86;102071.44;5058070;28;20249;-81
2022/03/26 10:57:45;;;;;;;18.87;16.90;;;;;;;13.70;55.79;102070.50;5058989;28;20212;-81
2022/03/26 11:00:13;;;;;;;24.90;18.03;;;;;;;13.79;55.71;102069.56;5058598;28;20668;-81
2022/03/26 11:02:39;;;;;;;21.70;18.27;;;;;;;13.77;55.67;102087.06;5057926;28;20309;-81
2022/03/26 11:05:06;;;;;;;19.80;17.97;;;;;;;13.87;55.79;102079.16;5057654;28;20211;-81
2022/03/26 11:07:36;;;;;;;19.20;16.40;;;;;;;14.03;54.70;102092.16;5066315;28;20218;-80
2022/03/26 11:10:04;;;;;;;17.43;15.53;;;;;;;14.19;54.18;102109.56;5072644;28;20227;-80
2022/03/26 11:12:33;;;;;;;20.50;18.43;;;;;;;14.26;53.63;102134.03;5077593;28;20210;-81
2022/03/26 11:15:01;;;;;;;18.37;16.57;;;;;;;14.26;53.74;102128.78;5077769;28;20275;-81